createdAt,value
2023-04-09T00:00:37.777Z,73.76
2023-04-09T00:06:03.554Z,73.88
2023-04-09T00:11:07.546Z,73.96
2023-04-09T00:16:11.487Z,74.08
2023-04-09T00:21:16.887Z,74.18
2023-04-09T00:26:21.846Z,74.29
2023-04-09T00:31:26.526Z,74.25
2023-04-09T00:36:30.296Z,74.35
2023-04-09T00:41:34.516Z,74.71
2023-04-09T00:46:39.189Z,75.00
2023-04-09T00:51:47.058Z,75.36
2023-04-09T00:56:51.659Z,75.77
2023-04-09T01:01:56.950Z,75.93
2023-04-09T01:07:23.789Z,75.97
2023-04-09T01:13:06.317Z,75.87
2023-04-09T01:18:24.069Z,76.00
2023-04-09T01:24:09.887Z,76.02
2023-04-09T01:29:18.198Z,75.83
2023-04-09T01:34:23.317Z,75.96
2023-04-09T01:39:28.209Z,76.01
2023-04-09T01:44:33.758Z,76.34
2023-04-09T01:49:40.976Z,76.50
2023-04-09T01:54:45.840Z,76.70
2023-04-09T01:59:49.863Z,76.88
2023-04-09T02:04:59.124Z,76.79
2023-04-09T02:10:06.463Z,76.86
2023-04-09T02:15:11.926Z,76.96
2023-04-09T02:20:20.641Z,77.07
2023-04-09T02:25:26.616Z,77.22
2023-04-09T02:30:30.544Z,77.31
2023-04-09T02:35:35.002Z,77.43
2023-04-09T02:40:38.690Z,77.50
2023-04-09T02:45:43.473Z,77.54
2023-04-09T02:50:47.437Z,77.60
2023-04-09T02:55:51.194Z,77.70
2023-04-09T03:00:54.987Z,78.03
2023-04-09T03:06:00.808Z,78.25
2023-04-09T03:11:04.938Z,78.38
2023-04-09T03:16:10.794Z,78.61
2023-04-09T03:21:15.105Z,78.88
2023-04-09T03:26:20.785Z,79.13
2023-04-09T03:31:24.425Z,79.39
2023-04-09T03:36:28.584Z,79.54
2023-04-09T03:41:32.408Z,79.68
2023-04-09T03:46:36.913Z,79.76
2023-04-09T03:51:41.093Z,79.79
2023-04-09T03:56:44.868Z,80.14
2023-04-09T04:01:49.014Z,80.40
2023-04-09T04:06:54.638Z,80.47
2023-04-09T04:11:59.564Z,80.56
2023-04-09T04:17:03.950Z,80.48
2023-04-09T04:22:08.126Z,80.47
2023-04-09T04:27:11.892Z,80.75
2023-04-09T04:32:16.298Z,80.88
2023-04-09T04:37:20.548Z,80.99
2023-04-09T04:42:24.580Z,81.01
2023-04-09T04:47:28.676Z,81.18
2023-04-09T04:52:32.842Z,81.10
2023-04-09T04:57:36.671Z,81.20
2023-04-09T05:02:40.786Z,81.14
2023-04-09T05:07:44.920Z,81.28
2023-04-09T05:12:50.288Z,81.36
2023-04-09T05:17:55.146Z,81.32
2023-04-09T05:22:59.922Z,81.22
2023-04-09T05:28:05.059Z,81.16
2023-04-09T05:33:09.047Z,81.25
2023-04-09T05:38:14.254Z,81.38
2023-04-09T05:43:19.070Z,81.48
2023-04-09T05:48:23.238Z,81.58
2023-04-09T05:53:27.793Z,81.53
2023-04-09T05:58:31.671Z,81.50
2023-04-09T06:03:36.458Z,81.40
2023-04-09T06:08:41.328Z,81.32
2023-04-09T06:13:45.503Z,81.46
2023-04-09T06:19:17.613Z,81.53
2023-04-09T06:24:23.408Z,81.51
2023-04-09T06:29:28.030Z,81.58
2023-04-09T06:35:02.058Z,81.44
2023-04-09T06:40:08.584Z,81.22
2023-04-09T06:45:43.089Z,81.04
2023-04-09T06:50:48.149Z,80.75
2023-04-09T06:55:52.788Z,80.64
2023-04-09T07:01:32.038Z,80.43
2023-04-09T07:06:36.100Z,80.26
2023-04-09T07:11:41.781Z,79.96
2023-04-09T07:16:47.181Z,79.94
2023-04-09T07:21:52.759Z,79.75
2023-04-09T07:26:58.376Z,79.56
2023-04-09T07:32:04.164Z,79.60
2023-04-09T07:37:09.368Z,79.55
2023-04-09T07:49:33.964Z,79.18
2023-04-09T07:54:37.811Z,79.00
2023-04-09T07:59:41.789Z,79.07
2023-04-09T08:05:24.121Z,78.89
2023-04-09T08:10:28.252Z,78.79
2023-04-09T08:15:34.979Z,78.61
2023-04-09T08:21:54.668Z,78.26
2023-04-09T08:41:47.077Z,77.21
2023-04-09T08:47:00.981Z,76.90
2023-04-09T08:52:05.681Z,76.35
2023-04-09T08:57:15.509Z,75.75
2023-04-09T09:02:19.388Z,74.97
2023-04-09T09:07:28.099Z,74.51
2023-04-09T09:34:32.054Z,72.19
2023-04-09T09:48:05.511Z,70.93
2023-04-09T09:53:12.373Z,70.43
2023-04-09T09:59:11.337Z,69.79
2023-04-09T10:04:59.065Z,68.81
2023-04-09T10:10:53.838Z,68.55
2023-04-09T10:23:24.864Z,66.18
2023-04-09T10:29:28.297Z,65.06
2023-04-09T10:35:03.753Z,64.79
2023-04-09T10:40:41.002Z,65.01
2023-04-09T10:45:58.698Z,65.84
2023-04-09T10:51:07.332Z,66.03
2023-04-09T10:56:17.712Z,66.21
2023-04-09T11:01:23.191Z,66.87
2023-04-09T11:06:36.881Z,66.99
2023-04-09T11:11:48.100Z,66.47
2023-04-09T11:49:01.362Z,62.13
2023-04-09T12:01:33.931Z,59.15
2023-04-09T12:07:56.761Z,57.42
2023-04-09T12:13:14.095Z,56.24
2023-04-09T12:26:30.170Z,56.33
2023-04-09T12:32:12.333Z,54.76
2023-04-09T12:37:16.737Z,54.43
2023-04-09T12:43:11.685Z,53.79
2023-04-09T12:49:07.272Z,52.99
2023-04-09T12:54:32.609Z,53.03
2023-04-09T13:00:31.542Z,53.58
2023-04-09T13:05:45.010Z,53.81
2023-04-09T13:10:50.541Z,53.04
2023-04-09T13:15:58.487Z,52.02
2023-04-09T13:21:03.627Z,51.09
2023-04-09T13:26:23.626Z,51.28
2023-04-09T13:31:57.918Z,50.81
2023-04-09T13:37:33.451Z,50.76
2023-04-09T13:43:29.823Z,50.80
2023-04-09T13:49:27.478Z,51.02
2023-04-09T13:55:19.269Z,51.44
2023-04-09T14:01:13.932Z,51.40
2023-04-09T14:07:28.353Z,51.23
2023-04-09T14:12:32.270Z,52.49
2023-04-09T14:24:42.593Z,52.66
2023-04-09T14:30:36.217Z,52.61
2023-04-09T14:35:40.375Z,53.01
2023-04-09T14:41:08.836Z,53.62
2023-04-09T14:46:12.809Z,54.33
2023-04-09T14:51:42.405Z,54.85
2023-04-09T14:56:47.027Z,54.67
2023-04-09T15:02:17.077Z,54.35
2023-04-09T15:07:51.632Z,54.42
2023-04-09T15:12:55.641Z,54.30
2023-04-09T15:18:23.549Z,54.84
2023-04-09T15:23:27.507Z,54.59
2023-04-09T15:29:07.138Z,54.71
2023-04-09T15:34:11.116Z,54.91
2023-04-09T15:39:15.641Z,55.19
2023-04-09T15:44:20.021Z,55.31
2023-04-09T15:50:46.952Z,55.27
2023-04-09T15:55:57.567Z,54.95
2023-04-09T16:01:10.684Z,55.04
2023-04-09T16:06:15.108Z,55.63
2023-04-09T16:11:44.307Z,56.52
2023-04-09T16:16:50.258Z,57.44
2023-04-09T16:21:54.228Z,58.27
2023-04-09T16:26:58.657Z,58.94
2023-04-09T16:32:30.974Z,59.52
2023-04-09T16:37:54.072Z,60.01
2023-04-09T16:43:50.479Z,60.26
2023-04-09T16:49:04.048Z,60.79
2023-04-09T16:54:33.994Z,61.21
2023-04-09T17:00:01.200Z,61.67
2023-04-09T17:05:57.808Z,61.97
2023-04-09T17:12:24.137Z,62.24
2023-04-09T17:17:28.155Z,63.01
2023-04-09T17:56:43.158Z,66.81
2023-04-09T18:01:48.475Z,67.01
2023-04-09T18:14:00.845Z,67.19
2023-04-09T18:27:42.468Z,67.63
2023-04-09T18:47:41.897Z,68.48
2023-04-09T18:59:52.035Z,68.79
2023-04-09T19:05:08.398Z,68.68
2023-04-09T19:17:18.176Z,68.51
2023-04-09T19:36:37.346Z,68.69
2023-04-09T19:48:50.405Z,69.17
2023-04-09T19:53:54.282Z,69.29
2023-04-09T19:58:58.387Z,69.57
2023-04-09T20:04:31.326Z,69.82
2023-04-09T20:09:35.972Z,69.90
2023-04-09T20:14:42.714Z,70.04
2023-04-09T20:19:47.233Z,70.22
2023-04-09T20:24:53.898Z,70.46
2023-04-09T20:29:57.833Z,70.60
2023-04-09T20:35:06.676Z,70.68
2023-04-09T20:40:12.323Z,70.87
2023-04-09T20:45:42.076Z,71.18
2023-04-09T20:50:46.351Z,71.30
2023-04-09T21:02:53.497Z,72.48
2023-04-09T21:07:57.335Z,72.45
2023-04-09T21:13:01.200Z,72.39
2023-04-09T21:18:18.227Z,72.42
2023-04-09T21:23:21.890Z,73.12
2023-04-09T21:29:24.252Z,73.54
2023-04-09T21:34:28.007Z,73.53
2023-04-09T21:40:13.084Z,73.56
2023-04-09T21:45:17.437Z,73.64
2023-04-09T21:57:39.321Z,73.78
2023-04-09T22:02:44.122Z,73.74
2023-04-09T22:07:47.866Z,73.89
2023-04-09T22:12:51.835Z,74.22
2023-04-09T22:17:55.793Z,74.40
2023-04-09T22:22:59.996Z,74.61
2023-04-09T22:28:05.991Z,74.50
2023-04-09T22:34:26.584Z,74.40
2023-04-09T22:39:30.276Z,74.57
2023-04-09T22:44:33.936Z,74.70
2023-04-09T22:49:37.867Z,74.68
2023-04-09T22:54:56.848Z,74.46
2023-04-09T23:00:01.239Z,74.49
2023-04-09T23:05:05.517Z,74.42
2023-04-09T23:10:11.699Z,74.38
2023-04-09T23:15:16.242Z,74.41
2023-04-09T23:20:21.501Z,74.46
2023-04-09T23:25:30.961Z,74.65
2023-04-09T23:30:34.677Z,74.82
2023-04-09T23:35:38.653Z,74.96
2023-04-09T23:40:42.975Z,75.12
2023-04-09T23:45:55.821Z,75.31
2023-04-09T23:50:59.517Z,75.50
